createdAt,value
2023-01-07T00:05:01.370Z,-24.16
2023-01-07T00:10:06.095Z,-23.91
2023-01-07T00:15:08.877Z,-23.89
2023-01-07T00:20:11.421Z,-24.25
2023-01-07T00:25:13.800Z,-23.99
2023-01-07T00:30:16.116Z,-24.10
2023-01-07T00:35:24.654Z,-24.76
2023-01-07T00:40:27.045Z,-24.95
2023-01-07T00:45:31.656Z,-24.08
2023-01-07T00:50:36.468Z,-23.82
2023-01-07T00:55:39.219Z,-24.34
2023-01-07T01:00:41.694Z,-23.90
2023-01-07T01:05:44.094Z,-23.92
2023-01-07T01:10:46.537Z,-24.28
2023-01-07T01:15:49.562Z,-25.09
2023-01-07T01:20:52.033Z,-24.35
2023-01-07T01:26:11.287Z,-24.22
2023-01-07T01:31:13.839Z,-24.48
2023-01-07T01:36:22.878Z,-24.12
2023-01-07T01:41:27.283Z,-24.24
2023-01-07T01:46:36.582Z,-24.30
2023-01-07T01:51:42.243Z,-24.10
2023-01-07T01:56:46.019Z,-24.23
2023-01-07T02:01:48.804Z,-24.17
2023-01-07T02:06:59.310Z,-24.94
2023-01-07T02:12:15.193Z,-24.02
2023-01-07T02:17:36.366Z,-24.50
2023-01-07T02:23:04.558Z,-24.04
2023-01-07T02:28:28.289Z,-24.04
2023-01-07T02:33:34.450Z,-24.06
2023-01-07T02:38:48.664Z,-24.06
2023-01-07T02:44:15.101Z,-24.73
2023-01-07T02:49:18.525Z,-24.53
2023-01-07T02:54:25.855Z,-24.65
2023-01-07T02:59:56.117Z,-24.46
2023-01-07T03:05:13.660Z,-24.15
2023-01-07T03:10:50.797Z,-25.33
2023-01-07T03:15:53.538Z,-24.18
2023-01-07T03:21:00.117Z,-24.81
2023-01-07T03:26:04.991Z,-25.18
2023-01-07T03:31:10.217Z,-24.55
2023-01-07T03:36:14.308Z,-24.28
2023-01-07T03:41:36.612Z,-24.52
2023-01-07T03:46:40.399Z,-24.34
2023-01-07T03:51:42.707Z,-24.78
2023-01-07T03:56:45.137Z,-24.41
2023-01-07T04:01:48.042Z,-24.26
2023-01-07T04:06:51.392Z,-24.45
2023-01-07T04:11:53.896Z,-25.51
2023-01-07T04:16:56.303Z,-25.25
2023-01-07T04:21:58.684Z,-24.99
2023-01-07T04:27:01.106Z,-24.96
2023-01-07T04:32:03.626Z,-24.94
2023-01-07T04:37:07.807Z,-24.76
2023-01-07T04:42:10.927Z,-24.81
2023-01-07T04:47:13.472Z,-26.19
2023-01-07T04:52:15.943Z,-25.06
2023-01-07T04:57:18.581Z,-24.67
2023-01-07T05:02:21.685Z,-24.67
2023-01-07T05:07:24.190Z,-24.81
2023-01-07T05:12:27.661Z,-24.67
2023-01-07T05:17:30.143Z,-24.52
2023-01-07T05:22:32.903Z,-24.86
2023-01-07T05:27:35.348Z,-24.84
2023-01-07T05:32:38.969Z,-25.89
2023-01-07T05:37:41.504Z,-24.84
2023-01-07T05:42:44.454Z,-24.68
2023-01-07T05:47:46.954Z,-24.71
2023-01-07T05:52:51.212Z,-25.22
2023-01-07T05:57:53.487Z,-24.96
2023-01-07T06:02:55.807Z,-24.98
2023-01-07T06:07:58.300Z,-25.14
2023-01-07T06:13:02.848Z,-25.26
2023-01-07T06:18:05.157Z,-25.73
2023-01-07T06:23:07.351Z,-25.13
2023-01-07T06:28:09.557Z,-24.60
2023-01-07T06:33:12.335Z,-25.50
2023-01-07T06:38:14.759Z,-25.95
2023-01-07T06:43:17.075Z,-24.75
2023-01-07T06:48:19.443Z,-24.91
2023-01-07T06:53:21.638Z,-24.96
2023-01-07T06:58:23.894Z,-25.09
2023-01-07T07:03:26.124Z,-24.70
2023-01-07T07:08:28.528Z,-25.30
2023-01-07T07:13:30.741Z,-25.01
2023-01-07T07:18:33.159Z,-24.52
2023-01-07T07:23:35.399Z,-24.65
2023-01-07T07:28:37.983Z,-24.73
2023-01-07T07:33:40.200Z,-25.04
2023-01-07T07:38:42.482Z,-24.13
2023-01-07T07:43:44.745Z,-23.21
2023-01-07T07:48:51.741Z,-22.13
2023-01-07T07:53:56.717Z,-20.68
2023-01-07T07:58:59.025Z,-19.81
2023-01-07T08:04:02.010Z,-19.62
2023-01-07T08:09:04.378Z,-20.20
2023-01-07T08:14:06.685Z,-21.06
2023-01-07T08:19:08.900Z,-21.58
2023-01-07T08:24:12.271Z,-21.87
2023-01-07T08:29:16.734Z,-22.85
2023-01-07T08:34:19.086Z,-21.78
2023-01-07T08:39:21.338Z,-22.21
2023-01-07T08:44:23.714Z,-21.99
2023-01-07T08:49:25.939Z,-22.39
2023-01-07T08:54:28.325Z,-22.19
2023-01-07T08:59:30.843Z,-22.45
2023-01-07T09:04:33.086Z,-22.30
2023-01-07T09:09:35.391Z,-23.33
2023-01-07T09:14:37.794Z,-21.98
2023-01-07T09:19:40.003Z,-22.23
2023-01-07T09:24:42.214Z,-22.09
2023-01-07T09:29:44.459Z,-21.86
2023-01-07T09:34:46.839Z,-22.40
2023-01-07T09:39:49.261Z,-21.88
2023-01-07T09:44:57.467Z,-21.71
2023-01-07T09:50:07.874Z,-21.95
2023-01-07T09:55:21.742Z,-21.65
2023-01-07T10:00:25.175Z,-21.59
2023-01-07T10:05:49.812Z,-21.81
2023-01-07T10:11:10.049Z,-21.48
2023-01-07T10:16:42.980Z,-21.41
2023-01-07T10:21:54.280Z,-21.91
2023-01-07T10:26:59.324Z,-21.30
2023-01-07T10:32:15.999Z,-21.79
2023-01-07T10:37:35.488Z,-21.18
2023-01-07T10:42:45.190Z,-22.02
2023-01-07T10:48:06.613Z,-21.09
2023-01-07T10:53:27.543Z,-21.04
2023-01-07T10:58:43.856Z,-21.28
2023-01-07T11:03:49.739Z,-21.17
2023-01-07T11:08:53.566Z,-21.38
2023-01-07T11:14:10.973Z,-20.79
2023-01-07T11:19:13.539Z,-21.14
2023-01-07T11:24:28.842Z,-20.69
2023-01-07T11:29:59.202Z,-20.64
2023-01-07T11:35:23.253Z,-21.22
2023-01-07T11:40:32.933Z,-21.03
2023-01-07T11:46:20.542Z,-20.67
2023-01-07T11:51:12.402Z,-20.62
2023-01-07T11:56:40.296Z,-21.22
2023-01-07T12:01:46.970Z,-20.98
2023-01-07T12:06:51.423Z,-20.39
2023-01-07T12:11:55.595Z,-21.03
2023-01-07T12:17:15.756Z,-21.09
2023-01-07T12:22:44.589Z,-20.41
2023-01-07T12:27:54.771Z,-20.71
2023-01-07T12:32:59.981Z,-20.40
2023-01-07T12:38:20.507Z,-20.35
2023-01-07T12:43:38.480Z,-20.33
2023-01-07T12:49:16.556Z,-20.29
2023-01-07T12:54:28.121Z,-20.29
2023-01-07T12:59:48.073Z,-20.30
2023-01-07T13:04:58.888Z,-20.42
2023-01-07T13:10:19.870Z,-20.59
2023-01-07T13:15:27.509Z,-20.30
2023-01-07T13:21:15.985Z,-21.02
2023-01-07T13:26:45.912Z,-20.35
2023-01-07T13:32:19.352Z,-20.37
2023-01-07T13:37:48.409Z,-20.73
2023-01-07T13:43:33.255Z,-20.44
2023-01-07T13:48:38.759Z,-21.78
2023-01-07T13:53:45.455Z,-20.50
2023-01-07T13:58:50.635Z,-20.81
2023-01-07T14:04:08.492Z,-21.93
2023-01-07T14:09:20.609Z,-21.72
2023-01-07T14:14:52.514Z,-23.49
2023-01-07T14:20:23.046Z,-20.98
2023-01-07T14:25:54.356Z,-20.65
2023-01-07T14:30:58.741Z,-22.63
2023-01-07T14:36:06.763Z,-22.70
2023-01-07T14:41:09.999Z,-20.71
2023-01-07T14:46:24.813Z,-20.77
2023-01-07T14:52:20.389Z,-20.82
2023-01-07T14:57:37.796Z,-20.85
2023-01-07T15:03:25.297Z,-21.81
2023-01-07T15:08:58.450Z,-23.05
2023-01-07T15:14:24.528Z,-20.95
2023-01-07T15:19:27.026Z,-21.73
2023-01-07T15:24:38.485Z,-21.27
2023-01-07T15:29:56.539Z,-21.43
2023-01-07T15:35:25.716Z,-21.04
2023-01-07T15:40:32.783Z,-21.58
2023-01-07T15:45:35.260Z,-21.40
2023-01-07T15:50:47.217Z,-21.06
2023-01-07T15:56:03.019Z,-21.39
2023-01-07T16:01:11.880Z,-21.36
2023-01-07T16:06:36.863Z,-21.12
2023-01-07T16:11:41.612Z,-21.66
2023-01-07T16:17:07.988Z,-21.22
2023-01-07T16:22:18.041Z,-22.36
2023-01-07T16:27:29.836Z,-22.36
2023-01-07T16:32:36.319Z,-22.22
2023-01-07T16:37:49.696Z,-22.38
2023-01-07T16:42:54.529Z,-22.57
2023-01-07T16:48:19.602Z,-22.54
2023-01-07T16:53:35.526Z,-22.88
2023-01-07T16:58:54.304Z,-22.59
2023-01-07T17:03:59.403Z,-21.83
2023-01-07T17:09:02.265Z,-21.94
2023-01-07T17:14:25.820Z,-22.58
2023-01-07T17:19:50.174Z,-21.65
2023-01-07T17:25:21.033Z,-22.18
2023-01-07T17:31:17.277Z,-21.72
2023-01-07T17:36:24.998Z,-21.82
2023-01-07T17:41:46.341Z,-22.62
2023-01-07T17:46:49.312Z,-22.00
2023-01-07T17:51:54.506Z,-21.97
2023-01-07T17:56:57.765Z,-22.55
2023-01-07T18:02:02.342Z,-22.66
2023-01-07T18:07:05.550Z,-22.54
2023-01-07T18:12:37.096Z,-22.27
2023-01-07T18:17:39.863Z,-24.00
2023-01-07T18:22:43.464Z,-23.62
2023-01-07T18:27:53.014Z,-21.82
2023-01-07T18:32:55.947Z,-22.96
2023-01-07T18:37:58.771Z,-23.54
2023-01-07T18:43:20.308Z,-24.94
2023-01-07T18:48:23.092Z,-22.61
2023-01-07T18:53:27.977Z,-24.01
2023-01-07T18:58:32.283Z,-22.99
2023-01-07T19:03:51.603Z,-22.03
2023-01-07T19:08:55.961Z,-24.10
2023-01-07T19:13:58.719Z,-22.26
2023-01-07T19:19:01.433Z,-24.64
2023-01-07T19:24:07.381Z,-23.47
2023-01-07T19:29:13.225Z,-23.09
2023-01-07T19:34:19.999Z,-23.51
2023-01-07T19:39:24.340Z,-24.76
2023-01-07T19:44:27.108Z,-23.43
2023-01-07T19:49:30.940Z,-23.26
2023-01-07T19:54:36.451Z,-24.73
2023-01-07T19:59:46.876Z,-24.65
2023-01-07T20:04:51.460Z,-22.48
2023-01-07T20:09:58.357Z,-23.67
2023-01-07T20:15:00.953Z,-24.29
2023-01-07T20:20:08.435Z,-23.64
2023-01-07T20:25:13.900Z,-23.21
2023-01-07T20:30:16.881Z,-23.98
2023-01-07T20:35:21.272Z,-22.43
2023-01-07T20:40:25.986Z,-22.07
2023-01-07T20:45:29.985Z,-23.20
2023-01-07T20:50:35.906Z,-22.77
2023-01-07T20:55:40.169Z,-23.37
2023-01-07T21:00:42.741Z,-24.46
2023-01-07T21:05:47.642Z,-24.51
2023-01-07T21:10:50.636Z,-24.97
2023-01-07T21:15:54.863Z,-23.40
2023-01-07T21:21:01.061Z,-25.04
2023-01-07T21:26:06.361Z,-26.19
2023-01-07T21:31:17.359Z,-23.36
2023-01-07T21:36:22.440Z,-22.99
2023-01-07T21:41:29.504Z,-23.81
2023-01-07T21:46:33.823Z,-23.48
2023-01-07T21:51:39.246Z,-23.54
2023-01-07T21:56:42.902Z,-24.97
2023-01-07T22:01:50.058Z,-24.52
2023-01-07T22:06:54.541Z,-23.65
2023-01-07T22:11:56.897Z,-22.46
2023-01-07T22:16:59.245Z,-22.58
2023-01-07T22:22:04.617Z,-25.13
2023-01-07T22:27:07.064Z,-25.10
2023-01-07T22:32:10.656Z,-24.47
2023-01-07T22:37:16.176Z,-23.78
2023-01-07T22:42:34.401Z,-23.87
2023-01-07T22:47:40.064Z,-23.07
2023-01-07T22:52:43.976Z,-23.28
2023-01-07T22:57:46.417Z,-22.93
2023-01-07T23:02:50.046Z,-24.29
2023-01-07T23:07:53.689Z,-23.13
2023-01-07T23:12:56.083Z,-24.17
2023-01-07T23:17:58.426Z,-25.42
2023-01-07T23:23:01.998Z,-25.48
2023-01-07T23:28:07.239Z,-24.50
2023-01-07T23:33:11.005Z,-23.26
2023-01-07T23:38:14.276Z,-24.37
2023-01-07T23:43:17.848Z,-24.79
2023-01-07T23:48:20.369Z,-24.54
2023-01-07T23:53:27.947Z,-24.44
2023-01-07T23:58:33.465Z,-23.05
